Participated 5 times
Between 2019 and 2023
Benoit Cosnefroy, France
Tour de France 2026 starts from Edinburgh, Scotland in

Stats and Facts from
Tour de France.

2026   2025   2024   2023  2022  2021  2020  2019   2018  2017   2016   2015  2014  2013   2012   2011  2010   2009   2008   2007   2006   2005   2004   2003   2002   2001   2000   1999   1998   1997  1996   1995   1994   1993   1992  1991   1990   1989   1988   1987   1986   1985   1984   1983  1982  1981   1980   1979  1978  1977   1976  1975  1974  1973   1972   1971   1970  1969   1968   1967   1966   1965  1964  1963   1962   1961   1960   1959   1958   1957  1956   1955   1954   1953   1952  1951  1950  1949   1948  1947  1939   1938   1937   1936   1935   1934   1933  1932   1931   1930  1929   1928   1927   1926  1925  1924  1923   1922   1921   1920   1919  1914   1913   1912   1911   1910  1909   1908   1907   1906  1905  1904   1903 

Tourstats
Sitemap

After stage 21 - 2026:
 16451 starters.
  5513 different riders.
  689 teams.
  2419 stages.
  470 restdays.
  469752.50 km.
  5946 abandoned riders.

Click map for 1925 route.
Facts from Tour de France 1925 Additional info and images from 1925.
  |   Stages.  |   Stage winners.  |   Days in jerseys.  |   Teams.  |   All riders.  |   All riders by age.  |   All riders from.  |  

  |   Rookies.  |   Withdrawls.  |   Average speed.  |   GC.  |   Polka  |   Green  |   White  |   Summits. (In tour)  |   Miscellaneous.  |  

Stage 2 on June 23rd. 1925
Pick a stage:  1  2  3  4  5  6  7  8  9  10  11  12  13  14  15  16  17  18  

After stage 2:    Ottavio Bottecchia  
  Le HavreCherbourg | Dist: 371.00km. | Winner: Romain Bellenger

Podium

Average speed for all riders in stage:  22,938 km./hr.

1
 Romain Bellenger  Alcyon-Dunlop15h 06' 00"=24,570  km/h

2
 Adelin Benoit  Thomann-Dunlop15h 06' 00"=24,570  km/h

3
 Nicolas Frantz  Alcyon-Dunlop15h 06' 00"=24,570  km/h

4  August Verdyck  Christophe-Hutchinson15h 06' 00"=24,570  km/h

5  Ottavio Bottecchia  Automoto-Hutchinson15h 06' 00"=24,570  km/h

6  Marcel Colleu  J. B. Louvet-Pouchois15h 06' 02"+  00:00:02 =24,569  km/h

7  Federico Gay  Meteore-Wolber15h 06' 04"+  00:00:04 =24,568  km/h

8  Bartolomeo Aimo  Alcyon-Dunlop15h 06' 04"+  00:00:04 =24,568  km/h

9  Ardito Bresciani  Meteore-Wolber15h 06' 04"+  00:00:04 =24,568  km/h

10  Luigi-Natale Lucotti  Meteore-Wolber15h 06' 06"+  00:00:06 =24,567  km/h

11  Jean Alavoine  Jean Alavoine-Dunlop-Wolber15h 06' 07"+  00:00:07 =24,566  km/h

12  Léon Despontin  Touristes Routiers15h 06' 09"+  00:00:09 =24,565  km/h

13  Théo Beeckman  Thomann-Dunlop15h 06' 12"+  00:00:12 =24,564  km/h

14  Charles Roux  Touristes Routiers15h 07' 00"+  00:01:00 =24,542  km/h

15  Henri Touzard  Touristes Routiers15h 07' 01"+  00:01:01 =24,542  km/h

16  Albert Dejonghe  J. B. Louvet-Pouchois15h 07' 03"+  00:01:03 =24,541  km/h

17  Theodore Wynsdau  J. B. Louvet-Pouchois15h 07' 06"+  00:01:06 =24,540  km/h

18  Raymond Englebert  Labor-Dunlop15h 07' 56"+  00:01:56 =24,517  km/h

19  Lucien Buysse  Automoto-Hutchinson15h 08' 00"+  00:02:00 =24,515  km/h

20  Louis Mottiat  Alcyon-Dunlop15h 08' 50"+  00:02:50 =24,493  km/h

21  Giuseppe Enrici  Armor-Dunlop15h 08' 55"+  00:02:55 =24,491  km/h

22  August Mortelmans  J. B. Louvet-Pouchois15h 09' 50"+  00:03:50 =24,466  km/h

23  Maurice Arnoult  Touristes Routiers15h 10' 50"+  00:04:50 =24,439  km/h

24  Félix Sellier  Alcyon-Dunlop15h 10' 54"+  00:04:54 =24,437  km/h

25  Eugène Christophe  J. B. Louvet-Pouchois15h 10' 54"+  00:04:54 =24,437  km/h

26  Emile Masson  Alcyon-Dunlop15h 10' 56"+  00:04:56 =24,436  km/h

27  Charles Loew  Touristes Routiers15h 11' 50"+  00:05:50 =24,412  km/h

28  Giovanni Rossignoli  Touristes Routiers15h 11' 52"+  00:05:52 =24,411  km/h

29  Alfons Standaert  Labor-Dunlop15h 12' 52"+  00:06:52 =24,385  km/h

30  Umberto Berni  Touristes Routiers15h 13' 48"+  00:07:48 =24,360  km/h

31  Angelo Gremo  Meteore-Wolber15h 14' 48"+  00:08:48 =24,333  km/h

32  Omer Huyse  Armor-Dunlop15h 14' 52"+  00:08:52 =24,331  km/h

33  Francis Pelissier  Automoto-Hutchinson15h 15' 48"+  00:09:48 =24,307  km/h

34  Henri Pelissier  Automoto-Hutchinson15h 15' 48"+  00:09:48 =24,307  km/h

35  Henri Catelan  Touristes Routiers15h 15' 48"+  00:09:48 =24,307  km/h

36  Camiel Van de Casteele  J. B. Louvet-Pouchois15h 16' 52"+  00:10:52 =24,278  km/h

37  Charles Krier  Touristes Routiers15h 16' 52"+  00:10:52 =24,278  km/h

38  Alfonso Piccin  Christophe-Hutchinson15h 17' 48"+  00:11:48 =24,254  km/h

39  Giovanni Canova  Touristes Routiers15h 19' 48"+  00:13:48 =24,201  km/h

40  Michele Gordini  Touristes Routiers15h 19' 48"+  00:13:48 =24,201  km/h

41  Angelo Erba  Touristes Routiers15h 20' 52"+  00:14:52 =24,173  km/h

42  Hector Heusghem  Jean Louvet-Hutchinson15h 21' 50"+  00:15:50 =24,148  km/h

43  Robert Jacquinot  Jean Louvet-Hutchinson15h 22' 48"+  00:16:48 =24,122  km/h

44  Albert Jordens  Touristes Routiers15h 23' 48"+  00:17:48 =24,096  km/h

45  Honoré Barthélémy  Touristes Routiers15h 24' 48"+  00:18:48 =24,070  km/h

46  Roger Lacolle  Meteore-Wolber15h 25' 50"+  00:19:50 =24,043  km/h

47  Jules Buysse  Automoto-Hutchinson15h 28' 48"+  00:22:48 =23,966  km/h

48  Arthur Targez  Touristes Routiers15h 29' 48"+  00:23:48 =23,941  km/h

49  Hector Martin  J. B. Louvet-Pouchois15h 29' 50"+  00:23:50 =23,940  km/h

50  Alfredo Francini  Touristes Routiers15h 30' 48"+  00:24:48 =23,915  km/h

51  Alfredo Cominetti  Touristes Routiers15h 31' 48"+  00:25:48 =23,889  km/h

52  Joseph Pe  Touristes Routiers15h 31' 52"+  00:25:52 =23,888  km/h

53  Eugene Dhers  Touristes Routiers15h 32' 48"+  00:26:48 =23,864  km/h

54  Philippe Thys  Automoto-Hutchinson15h 32' 50"+  00:26:50 =23,863  km/h

55  Mosé Arosio  Touristes Routiers15h 38' 04"+  00:32:04 =23,730  km/h

56  Charles Cento  Touristes Routiers15h 39' 49"+  00:33:49 =23,685  km/h

57  Rene Wendels  Touristes Routiers15h 41' 49"+  00:35:49 =23,635  km/h

58  Emile Hardy  Christophe-Hutchinson15h 42' 50"+  00:36:50 =23,610  km/h

59  Vincenzo Bianco  Touristes Routiers15h 43' 50"+  00:37:50 =23,585  km/h

60  Raymond De Corte  J. B. Louvet-Pouchois15h 44' 48"+  00:38:48 =23,561  km/h

61  Jacques Coomans  Touristes Routiers15h 45' 50"+  00:39:50 =23,535  km/h

62  Henri Rubert  Touristes Routiers15h 47' 04"+  00:41:04 =23,504  km/h

63  Maxime Mourguiat  Touristes Routiers15h 50' 01"+  00:44:01 =23,431  km/h

64  Simeon Vergnol  Touristes Routiers15h 51' 02"+  00:45:02 =23,406  km/h

65  Maurice Protin  Touristes Routiers15h 52' 00"+  00:46:00 =23,382  km/h

66  Jules Deloffre  Touristes Routiers15h 59' 02"+  00:53:02 =23,211  km/h

67  Felice Di Gaetano  Touristes Routiers16h 00' 00"+  00:54:00 =23,188  km/h

68  Charles Martinet  Touristes Routiers16h 00' 04"+  00:54:04 =23,186  km/h

69  Edouard Teisseire  Touristes Routiers16h 09' 04"+  01:03:04 =22,971  km/h

70  Leopold Gelot  Touristes Routiers16h 12' 03"+  01:06:03 =22,900  km/h

71  Lucien Prudhomme  Touristes Routiers16h 13' 00"+  01:07:00 =22,878  km/h

72  Edouard Petre  Touristes Routiers16h 13' 04"+  01:07:04 =22,876  km/h

73  Andre Drobecq  Touristes Routiers16h 13' 04"+  01:07:04 =22,876  km/h

74  Pietro Barbati  Touristes Routiers16h 14' 04"+  01:08:04 =22,853  km/h

75  Antoine Rière  Touristes Routiers16h 19' 00"+  01:13:00 =22,737  km/h

76  Marcel Clausse  Touristes Routiers16h 28' 03"+  01:22:03 =22,529  km/h

77  Louis Beaulieu  Touristes Routiers16h 29' 04"+  01:23:04 =22,506  km/h

78  Charles Parel  Touristes Routiers16h 31' 02"+  01:25:02 =22,461  km/h

79  Emile Broussard  Touristes Routiers16h 35' 00"+  01:29:00 =22,372  km/h

80  Urbain Comitis  Touristes Routiers16h 48' 04"+  01:42:04 =22,082  km/h

81  Guido Messeri  Touristes Routiers16h 48' 04"+  01:42:04 =22,082  km/h

82  Romolo Lazzaretti  Meteore-Wolber16h 56' 04"+  01:50:04 =21,908  km/h

83  Luigi Vertemati  Touristes Routiers17h 04' 04"+  01:58:04 =21,737  km/h

84  Giuseppe Ruffoni  Touristes Routiers17h 05' 00"+  01:59:00 =21,717  km/h

85  Pierre Argeles  Touristes Routiers17h 05' 00"+  01:59:00 =21,717  km/h

86  Camille Botte  Touristes Routiers17h 09' 00"+  02:03:00 =21,633  km/h

87  Joseph Marchand  Touristes Routiers17h 09' 00"+  02:03:00 =21,633  km/h

88  Arthur Hendryckx  Touristes Routiers17h 10' 00"+  02:04:00 =21,612  km/h

89  Adrien Toussaint  Touristes Routiers17h 16' 00"+  02:10:00 =21,486  km/h

90  Henri Miege  Touristes Routiers17h 19' 00"+  02:13:00 =21,424  km/h

91  Francois Chevalier  Touristes Routiers17h 20' 00"+  02:14:00 =21,404  km/h

92  Robert Asse  Touristes Routiers17h 21' 01"+  02:15:01 =21,383  km/h

93  Francois Lepenant  Touristes Routiers17h 34' 00"+  02:28:00 =21,120  km/h

94  Julien Perdaens  Touristes Routiers17h 34' 04"+  02:28:04 =21,118  km/h

95  Fernand Besnier  Touristes Routiers17h 40' 02"+  02:34:02 =20,999  km/h

96  Gaston Lemee  Touristes Routiers17h 40' 02"+  02:34:02 =20,999  km/h

97  Giuseppe Cassini  Touristes Routiers17h 40' 04"+  02:34:04 =20,999  km/h

98  Adrien Alpini  Touristes Routiers18h 05' 00"+  02:59:00 =20,516  km/h

99  August Lesigne  Touristes Routiers18h 08' 00"+  03:02:00 =20,460  km/h

100  Victor Lafosse  Touristes Routiers18h 09' 00"+  03:03:00 =20,441  km/h

101  Giuseppe Borghi  Touristes Routiers18h 09' 00"+  03:03:00 =20,441  km/h

102  Joseph Berio  Touristes Routiers18h 09' 00"+  03:03:00 =20,441  km/h

103  Alexandre Bontoux  Touristes Routiers18h 35' 00"+  03:29:00 =19,964  km/h

104  Victor Guichon  Touristes Routiers18h 35' 02"+  03:29:02 =19,964  km/h

105  Victor Kirchen  Touristes Routiers18h 58' 04"+  03:52:04 =19,559  km/h

106  Eugene Chiaberge  Touristes Routiers18h 59' 00"+  03:53:00 =19,543  km/h

107  Auguste Pescher  Touristes Routiers20h 35' 00"+  05:29:00 =18,024  km/h

108  Julien Lamby  Touristes Routiers20h 53' 00"+  05:47:00 =17,765  km/h

109  Gaston Morlet  Touristes Routiers20h 53' 00"+  05:47:00 =17,765  km/h


Withdrawls: 2
 RiderTeamReason
132   Albert Eischen Touristes RoutiersDid not finish
206   Alexandre Tozzi Touristes RoutiersDid not finish
Todays birthdays.

1887 • Paul Lepine
1897 • Léon Van Aken
1898 • Mario Vendruscolo
1913 • Maurice Cacheux
1913 • Gustave Danneels
1913 • Franz Dunder
1919 • René Desmet
1926 • Henri Van Kerckhove
1927 • Joseph Verhaert
1934 • Michel Vermeulin
1934 • Jan Westdorp
1939 • Guerrando Lenzi
1943 • Tony Houbrechts
1953 • Gianbattista Baronchelli
1956 • Per Bausager
1957 • Patrick Bonnet
1983 • Dimitri Champion
1984 • Thomas Dekker
1987 • Yoann Bagot
1987 • Jacques Janse Van Rensburg
1993 • Jack Haig

 

Optimized for Chrome - Edge
and Opera browsers.